首页
METAR-TAF:

METAR-TAF

机场 :

Nörvenich, 德国

纬度: 50-50N, 经度: 006-40E, 海拔: 118米

当前天气观测

该预报发布于22分钟前的15:20 UTC
风速16节,风向西转西南
温度 13°C
湿度 72%
气压 993 hPa
能見度: 9000
多云层高于2700英尺, 塔状积云.
小阵雨

METAR: ETNN 051520Z 24016KT 9000 -SHRA BKN027TCU 13/08 Q0993 BLU

时间: 17:42 (15:42 UTC)

预报

该预报发布于8小时和29分钟前的07:13 UTC
预报有效从05日的 08点(UTC)到 05日的 17点(UTC)
风速10节,风向西南
能見度: 8000
散云层高于2500英尺
多云层高于14000英尺
短暂存在
从 05日的 08点(UTC)到 05日的 17点(UTC)
风速10节,风向南转西南,有时为20节阵风
能見度: 4000
多云层高于2000英尺, 塔状积云.
阵雨
几率 30%
从 05日的 10点(UTC)到 05日的 16点(UTC)
风速15节,风向多变,有时为35节阵风
能見度: 3000
多云层高于1000英尺, 积雨云.
雷暴, 雨

TAF: ETNN 050713Z 0508/0517 22010KT 8000 NSW SCT025 BKN140 TEMPO 0508/0517 20010G20KT 4000 SHRA BKN020TCU PROB30 0510/0516 VRB15G35KT 3000 TSRA BKN010CB BY ETGL

超过4000个机场的气象观测和天气预报(METAR&TAF报告)。

可查询的气象台以黄色和红色小点在地图上表示。

将鼠标移到小点上方,可查看气象台名称。

然后点击查看天气观测和预报。

如需切换地图:点击带黑十字的绿色按钮放大地图;点击带横线的绿色按钮缩小地图;或者点击绿色箭头查看邻近地区的地图。


METAR-TAF: